Time;durP1;ratioP1;P1;durP2;ratioP2;P2;SDS_P1;SDS_P2;PMS_P1;PMS_P2;Temp;Humidity;BMP_temperature;BMP_pressure;BME280_temperature;BME280_humidity;BME280_pressure;Samples;Min_cycle;Max_cycle;Signal;HPM_P1;HPM_P2
2023/05/06 00:02:19;;;;;;;10.15;6.80;;;;;;;10.65;100.00;101494.66;5031715;28;20045;-53
2023/05/06 00:04:47;;;;;;;12.02;7.32;;;;;;;10.67;100.00;101499.84;5030554;28;20064;-59
2023/05/06 00:07:18;;;;;;;30.48;8.60;;;;;;;10.61;100.00;101501.03;5031583;28;20050;-51
2023/05/06 00:09:46;;;;;;;13.80;7.50;;;;;;;10.57;100.00;101491.63;5029601;28;20560;-52
2023/05/06 00:12:18;;;;;;;10.98;6.85;;;;;;;10.57;100.00;101494.25;5030339;28;20493;-50
2023/05/06 00:14:46;;;;;;;11.15;7.45;;;;;;;10.56;100.00;101485.50;5030683;28;20390;-52
2023/05/06 00:17:14;;;;;;;11.18;6.90;;;;;;;10.56;100.00;101490.75;5031195;28;20063;-51
2023/05/06 00:19:43;;;;;;;11.77;7.68;;;;;;;10.58;100.00;101486.25;5033947;28;20054;-50
2023/05/06 00:22:11;;;;;;;11.77;6.68;;;;;;;10.51;100.00;101484.88;5029200;28;20053;-51
2023/05/06 00:24:39;;;;;;;10.10;6.93;;;;;;;10.56;100.00;101496.00;5030647;28;20111;-50
2023/05/06 00:27:07;;;;;;;11.75;7.30;;;;;;;10.56;100.00;101497.81;5029889;28;20046;-53
2023/05/06 00:29:37;;;;;;;13.43;7.35;;;;;;;10.53;100.00;101493.56;5030138;28;20049;-51
2023/05/06 00:32:05;;;;;;;11.70;7.78;;;;;;;10.50;100.00;101485.84;5030408;28;20133;-52
2023/05/06 00:34:34;;;;;;;11.77;7.50;;;;;;;10.49;100.00;101486.75;5034110;28;20045;-53
2023/05/06 00:37:02;;;;;;;11.30;7.60;;;;;;;10.46;100.00;101494.81;5033147;28;20525;-52
2023/05/06 00:39:30;;;;;;;12.23;7.78;;;;;;;10.46;100.00;101486.94;5030426;28;20114;-52
2023/05/06 00:42:02;;;;;;;13.25;7.88;;;;;;;10.41;100.00;101495.06;5029830;28;20057;-52
2023/05/06 00:44:30;;;;;;;11.93;7.80;;;;;;;10.42;100.00;101490.66;5029892;28;20112;-52
2023/05/06 00:47:03;;;;;;;10.98;7.63;;;;;;;10.40;100.00;101490.75;5030380;28;20054;-51
2023/05/06 00:49:31;;;;;;;12.25;7.65;;;;;;;10.44;100.00;101484.41;5029926;28;20049;-58
2023/05/06 00:52:00;;;;;;;13.23;8.80;;;;;;;10.43;100.00;101485.31;5032714;28;20077;-58
2023/05/06 00:54:28;;;;;;;11.60;8.15;;;;;;;10.42;100.00;101480.16;5032783;28;20056;-58
2023/05/06 00:56:57;;;;;;;13.85;8.73;;;;;;;10.45;100.00;101479.97;5032374;28;20045;-58
2023/05/06 00:59:25;;;;;;;14.77;9.27;;;;;;;10.46;100.00;101481.69;5032615;28;20133;-59
2023/05/06 01:01:53;;;;;;;14.27;9.60;;;;;;;10.42;100.00;101477.53;5033094;28;20057;-58
2023/05/06 01:04:24;;;;;;;14.60;9.05;;;;;;;10.45;100.00;101483.44;5033021;28;20045;-59
2023/05/06 01:07:01;;;;;;;12.60;9.07;;;;;;;10.50;100.00;101477.94;5032322;28;20037;-59
2023/05/06 01:09:39;;;;;;;12.88;8.93;;;;;;;10.51;100.00;101474.38;5031197;28;20455;-58
2023/05/06 01:12:12;;;;;;;13.38;9.40;;;;;;;10.50;100.00;101470.06;5032242;28;20061;-58
2023/05/06 01:14:49;;;;;;;13.45;9.00;;;;;;;10.57;100.00;101474.03;5031897;28;20161;-58
2023/05/06 01:17:19;;;;;;;13.07;9.07;;;;;;;10.49;100.00;101465.72;5031384;28;20515;-59
2023/05/06 01:19:53;;;;;;;13.50;9.05;;;;;;;10.51;100.00;101470.91;5032193;28;20050;-59
2023/05/06 01:22:24;;;;;;;13.40;9.27;;;;;;;10.48;100.00;101482.44;5033792;28;20053;-59
2023/05/06 01:24:54;;;;;;;14.63;9.80;;;;;;;10.45;100.00;101479.97;5031800;28;20103;-59
2023/05/06 01:27:23;;;;;;;14.38;9.32;;;;;;;10.48;100.00;101472.78;5032069;28;20463;-58
2023/05/06 01:29:52;;;;;;;18.30;10.85;;;;;;;10.44;100.00;101479.13;5032125;28;20092;-58
2023/05/06 01:32:33;;;;;;;16.42;11.20;;;;;;;10.48;100.00;101474.53;5032085;28;20041;-59
2023/05/06 01:35:14;;;;;;;17.75;12.00;;;;;;;10.48;100.00;101469.28;5033669;28;20477;-60
2023/05/06 01:37:48;;;;;;;19.52;11.90;;;;;;;10.48;100.00;101467.53;5031971;28;20041;-59
2023/05/06 01:40:18;;;;;;;18.55;12.57;;;;;;;10.55;100.00;101467.16;5032962;28;20389;-58
2023/05/06 01:42:49;;;;;;;21.67;14.93;;;;;;;10.58;100.00;101470.50;5034214;28;20476;-59
2023/05/06 01:45:19;;;;;;;23.63;15.40;;;;;;;10.59;100.00;101461.66;5031117;28;20037;-59
2023/05/06 01:47:48;;;;;;;22.98;15.65;;;;;;;10.69;100.00;101469.03;5030271;28;20054;-59
2023/05/06 01:50:19;;;;;;;21.42;14.57;;;;;;;10.66;100.00;101477.94;5031623;28;20077;-52
2023/05/06 01:52:57;;;;;;;21.48;15.43;;;;;;;10.67;100.00;101469.13;5030578;28;20056;-52
2023/05/06 01:55:29;;;;;;;20.40;15.27;;;;;;;10.69;100.00;101467.25;5029862;28;20443;-52
2023/05/06 01:57:57;;;;;;;21.58;14.88;;;;;;;10.71;100.00;101467.19;5028699;28;20053;-52
2023/05/06 02:00:26;;;;;;;22.70;16.13;;;;;;;10.72;100.00;101471.50;5028845;28;20092;-50
2023/05/06 02:02:54;;;;;;;23.52;16.65;;;;;;;10.75;100.00;101463.44;5029036;28;20057;-52
2023/05/06 02:05:22;;;;;;;21.48;15.80;;;;;;;10.73;100.00;101462.66;5028074;28;20060;-53
2023/05/06 02:07:50;;;;;;;23.00;16.52;;;;;;;10.71;100.00;101469.81;5031477;28;20050;-52
2023/05/06 02:10:19;;;;;;;21.40;15.95;;;;;;;10.73;100.00;101467.91;5028392;28;20045;-52
2023/05/06 02:12:48;;;;;;;22.05;16.20;;;;;;;10.69;100.00;101466.41;5027778;28;20831;-52
2023/05/06 02:15:16;;;;;;;21.08;16.02;;;;;;;10.67;100.00;101470.91;5030387;28;20056;-52
2023/05/06 02:17:45;;;;;;;22.88;16.30;;;;;;;10.67;100.00;101471.75;5032342;28;20084;-49
2023/05/06 02:20:15;;;;;;;22.35;15.55;;;;;;;10.64;100.00;101474.56;5027264;28;20492;-50
2023/05/06 02:22:43;;;;;;;20.20;14.45;;;;;;;10.64;100.00;101483.28;5028568;28;20045;-52
2023/05/06 02:25:12;;;;;;;20.30;14.85;;;;;;;10.61;100.00;101486.09;5028232;28;20121;-51
2023/05/06 02:27:40;;;;;;;18.30;13.55;;;;;;;10.57;100.00;101468.78;5029500;28;20129;-52
2023/05/06 02:30:10;;;;;;;19.85;14.63;;;;;;;10.56;100.00;101476.75;5031137;28;20059;-53
2023/05/06 02:32:41;;;;;;;20.77;14.55;;;;;;;10.52;100.00;101472.59;5029722;28;20480;-52
2023/05/06 02:35:09;;;;;;;19.85;14.00;;;;;;;10.49;100.00;101466.56;5027127;28;20140;-53
2023/05/06 02:37:38;;;;;;;18.75;13.48;;;;;;;10.46;100.00;101466.75;5028273;28;20107;-52
2023/05/06 02:40:07;;;;;;;16.83;12.85;;;;;;;10.45;100.00;101472.09;5027877;28;20049;-50
2023/05/06 02:42:35;;;;;;;17.63;12.73;;;;;;;10.48;100.00;101479.81;5026840;28;20408;-51
2023/05/06 02:45:04;;;;;;;19.30;13.13;;;;;;;10.34;100.00;101470.00;5027334;28;20065;-53
2023/05/06 02:47:34;;;;;;;18.77;12.77;;;;;;;10.26;100.00;101466.94;5028565;28;20164;-53
2023/05/06 02:50:02;;;;;;;18.33;13.70;;;;;;;10.30;100.00;101460.59;5027914;28;20057;-51
2023/05/06 02:52:32;;;;;;;17.27;12.98;;;;;;;10.23;100.00;101460.06;5030884;28;20053;-50
2023/05/06 02:55:00;;;;;;;16.30;11.73;;;;;;;10.24;100.00;101461.78;5026978;28;20548;-51
2023/05/06 02:57:28;;;;;;;17.67;12.25;;;;;;;10.26;100.00;101461.69;5031477;28;20038;-53
2023/05/06 02:59:56;;;;;;;17.67;12.77;;;;;;;10.22;100.00;101468.03;5031741;28;20588;-52
2023/05/06 03:02:24;;;;;;;17.77;12.40;;;;;;;10.15;100.00;101457.00;5032441;28;20079;-51
2023/05/06 03:04:54;;;;;;;16.55;11.43;;;;;;;10.08;100.00;101460.91;5036218;28;20525;-52
2023/05/06 03:07:22;;;;;;;17.75;12.57;;;;;;;10.04;100.00;101460.19;5034442;28;20128;-52
2023/05/06 03:09:50;;;;;;;17.58;12.57;;;;;;;10.01;100.00;101462.13;5031848;28;20114;-48
2023/05/06 03:12:18;;;;;;;16.48;12.02;;;;;;;10.07;100.00;101464.44;5031901;28;20124;-51
2023/05/06 03:14:46;;;;;;;17.85;11.30;;;;;;;10.03;100.00;101465.53;5031871;28;20103;-50
2023/05/06 03:17:14;;;;;;;16.15;11.55;;;;;;;10.03;100.00;101471.63;5032206;28;20123;-51
2023/05/06 03:19:43;;;;;;;17.92;12.00;;;;;;;10.00;100.00;101476.22;5031091;28;20053;-51
2023/05/06 03:22:12;;;;;;;19.35;11.95;;;;;;;9.94;100.00;101475.63;5031605;28;20045;-49
2023/05/06 03:24:40;;;;;;;16.02;11.95;;;;;;;9.95;100.00;101474.69;5034322;28;20685;-50
2023/05/06 03:27:08;;;;;;;17.55;12.60;;;;;;;9.97;100.00;101467.56;5031646;28;20084;-50
2023/05/06 03:29:36;;;;;;;17.58;12.63;;;;;;;9.93;100.00;101468.66;5031316;28;20095;-51
2023/05/06 03:32:05;;;;;;;16.48;11.63;;;;;;;9.90;100.00;101462.72;5032779;28;20381;-51
2023/05/06 03:34:33;;;;;;;16.00;11.63;;;;;;;9.88;100.00;101454.91;5035986;28;20069;-50
2023/05/06 03:37:01;;;;;;;16.30;11.13;;;;;;;9.89;100.00;101461.03;5035694;28;20065;-51
2023/05/06 03:39:30;;;;;;;17.58;11.63;;;;;;;9.85;100.00;101460.31;5032684;28;20129;-52
2023/05/06 03:41:58;;;;;;;23.48;13.68;;;;;;;9.78;100.00;101462.41;5030685;28;20041;-54
2023/05/06 03:44:26;;;;;;;17.98;12.90;;;;;;;9.79;100.00;101466.75;5033994;28;20081;-51
2023/05/06 03:46:55;;;;;;;16.95;12.32;;;;;;;9.84;100.00;101465.66;5029855;28;20053;-51
2023/05/06 03:49:23;;;;;;;20.88;13.02;;;;;;;9.81;100.00;101466.66;5030879;28;20152;-52
2023/05/06 03:51:52;;;;;;;29.42;14.40;;;;;;;9.78;100.00;101466.84;5031510;28;20053;-49
2023/05/06 03:54:20;;;;;;;21.02;13.38;;;;;;;9.77;100.00;101458.09;5033002;28;20057;-52
2023/05/06 03:56:49;;;;;;;35.67;14.35;;;;;;;9.74;100.00;101470.53;5035256;28;20069;-50
2023/05/06 03:59:17;;;;;;;20.75;14.57;;;;;;;9.72;100.00;101473.25;5033558;28;20636;-51
2023/05/06 04:01:45;;;;;;;43.63;14.75;;;;;;;9.73;100.00;101469.69;5030864;28;20057;-51
2023/05/06 04:04:16;;;;;;;23.60;15.57;;;;;;;9.70;100.00;101461.97;5030351;28;20042;-50
2023/05/06 04:06:44;;;;;;;23.15;15.73;;;;;;;9.70;100.00;101467.22;5030599;28;20464;-52
2023/05/06 04:09:12;;;;;;;26.33;15.60;;;;;;;9.67;100.00;101463.88;5033437;28;20053;-50
2023/05/06 04:11:40;;;;;;;27.63;14.90;;;;;;;9.72;100.00;101469.75;5030556;28;20048;-53
2023/05/06 04:14:09;;;;;;;19.38;14.93;;;;;;;9.69;100.00;101465.50;5030632;28;20580;-52
2023/05/06 04:16:38;;;;;;;21.77;15.32;;;;;;;9.70;100.00;101469.00;5030501;28;20057;-53
2023/05/06 04:19:06;;;;;;;33.78;14.98;;;;;;;9.74;100.00;101465.28;5030349;28;20053;-52
2023/05/06 04:21:34;;;;;;;31.38;15.63;;;;;;;9.69;100.00;101462.06;5030485;28;20065;-53
2023/05/06 04:24:02;;;;;;;26.63;15.23;;;;;;;9.60;100.00;101472.09;5030699;28;20042;-51
2023/05/06 04:26:31;;;;;;;26.95;15.38;;;;;;;9.61;100.00;101472.94;5030731;28;20476;-52
2023/05/06 04:28:59;;;;;;;24.77;15.38;;;;;;;9.57;100.00;101472.25;5032259;28;20046;-52
2023/05/06 04:31:31;;;;;;;21.20;14.35;;;;;;;9.62;100.00;101479.91;5034832;28;20522;-49
2023/05/06 04:33:59;;;;;;;22.63;14.88;;;;;;;9.63;100.00;101477.19;5034890;28;20041;-53
2023/05/06 04:36:28;;;;;;;23.02;15.57;;;;;;;9.60;100.00;101479.16;5033434;28;20080;-52
2023/05/06 04:38:56;;;;;;;18.35;14.55;;;;;;;9.61;100.00;101479.06;5030229;28;20081;-52
2023/05/06 04:41:24;;;;;;;19.77;13.93;;;;;;;9.61;100.00;101478.19;5030195;28;20107;-50
2023/05/06 04:43:52;;;;;;;18.88;14.40;;;;;;;9.62;100.00;101487.78;5029938;28;20111;-53
2023/05/06 04:46:21;;;;;;;22.90;15.07;;;;;;;9.61;100.00;101491.31;5029952;28;20124;-51
2023/05/06 04:48:51;;;;;;;24.88;13.88;;;;;;;9.64;100.00;101484.16;5030054;28;20077;-51
2023/05/06 04:51:19;;;;;;;18.23;14.25;;;;;;;9.61;100.00;101489.56;5029438;28;20045;-51
2023/05/06 04:53:51;;;;;;;17.20;13.30;;;;;;;9.57;100.00;101497.66;5029492;28;20041;-52
2023/05/06 04:56:20;;;;;;;17.95;13.82;;;;;;;9.56;100.00;101490.72;5029485;28;20045;-52
2023/05/06 04:58:48;;;;;;;16.60;13.75;;;;;;;9.55;100.00;101491.66;5028998;28;20088;-51
2023/05/06 05:01:19;;;;;;;31.80;14.25;;;;;;;9.58;100.00;101497.56;5029732;28;20077;-51
2023/05/06 05:03:48;;;;;;;17.95;14.80;;;;;;;9.63;100.00;101502.63;5029798;28;20520;-50
2023/05/06 05:06:17;;;;;;;16.77;13.35;;;;;;;9.65;100.00;101511.25;5028634;28;20161;-58
2023/05/06 05:08:48;;;;;;;20.63;14.40;;;;;;;9.71;100.00;101510.13;5031211;28;20116;-58
2023/05/06 05:11:18;;;;;;;15.73;13.20;;;;;;;9.74;100.00;101512.56;5031715;28;20137;-58
2023/05/06 05:13:49;;;;;;;23.52;14.27;;;;;;;9.73;100.00;101513.50;5031445;28;20477;-58
2023/05/06 05:16:20;;;;;;;17.42;13.63;;;;;;;9.72;100.00;101512.66;5031559;28;20042;-59
2023/05/06 05:18:48;;;;;;;18.65;14.40;;;;;;;9.79;100.00;101514.03;5031265;28;20465;-59
2023/05/06 05:21:17;;;;;;;18.67;14.20;;;;;;;9.79;100.00;101510.56;5031157;28;20046;-58
2023/05/06 05:23:45;;;;;;;23.00;14.20;;;;;;;9.82;100.00;101508.63;5032790;28;20068;-58
2023/05/06 05:26:13;;;;;;;18.83;13.15;;;;;;;9.82;100.00;101515.66;5030558;28;20861;-59
2023/05/06 05:28:42;;;;;;;18.17;14.60;;;;;;;9.96;100.00;101515.78;5032908;28;20045;-58
2023/05/06 05:31:10;;;;;;;19.70;14.75;;;;;;;10.03;100.00;101526.00;5031169;28;20053;-58
2023/05/06 05:33:38;;;;;;;20.60;14.65;;;;;;;10.10;100.00;101517.72;5031305;28;20140;-58
2023/05/06 05:36:11;;;;;;;21.65;15.13;;;;;;;10.13;100.00;101516.72;5030511;28;20076;-58
2023/05/06 05:38:40;;;;;;;18.63;15.55;;;;;;;10.12;100.00;101518.47;5031230;28;20095;-58
2023/05/06 05:41:08;;;;;;;27.73;14.90;;;;;;;10.17;100.00;101515.63;5031229;28;20044;-58
2023/05/06 05:43:37;;;;;;;28.98;15.52;;;;;;;10.11;100.00;101515.91;5030841;28;20079;-58
2023/05/06 05:46:05;;;;;;;19.45;14.45;;;;;;;10.17;100.00;101520.00;5030949;28;20729;-59
2023/05/06 05:48:36;;;;;;;22.95;15.43;;;;;;;10.15;100.00;101526.19;5031226;28;20428;-58
2023/05/06 05:51:05;;;;;;;29.55;16.13;;;;;;;10.26;100.00;101527.41;5029407;28;20112;-58
2023/05/06 05:53:33;;;;;;;22.90;17.02;;;;;;;10.26;100.00;101524.78;5031335;28;20354;-58
2023/05/06 05:56:02;;;;;;;22.15;17.08;;;;;;;10.30;100.00;101524.53;5033193;28;20128;-58
2023/05/06 05:58:30;;;;;;;21.50;17.63;;;;;;;10.40;100.00;101529.34;5033161;28;20046;-58
2023/05/06 06:00:58;;;;;;;23.88;18.80;;;;;;;10.49;100.00;101527.06;5033000;28;20496;-58
2023/05/06 06:03:26;;;;;;;35.15;25.48;;;;;;;10.59;100.00;101530.06;5033359;28;20045;-58
2023/05/06 06:05:55;;;;;;;66.88;45.90;;;;;;;10.66;100.00;101533.16;5032987;28;20124;-58
2023/05/06 06:08:26;;;;;;;68.43;48.65;;;;;;;10.63;100.00;101536.84;5032590;28;20049;-58
2023/05/06 06:10:55;;;;;;;71.55;49.33;;;;;;;10.66;100.00;101535.81;5032573;28;20061;-58
2023/05/06 06:13:24;;;;;;;64.47;47.22;;;;;;;10.71;100.00;101531.16;5031263;28;20459;-58
2023/05/06 06:15:56;;;;;;;60.78;42.60;;;;;;;10.90;100.00;101532.78;5030923;28;20049;-58
2023/05/06 06:18:24;;;;;;;51.70;35.92;;;;;;;10.98;100.00;101531.41;5029374;28;20107;-58
2023/05/06 06:20:52;;;;;;;56.70;38.05;;;;;;;11.10;100.00;101535.13;5029172;28;20045;-58
2023/05/06 06:23:20;;;;;;;50.15;36.63;;;;;;;11.22;100.00;101522.19;5031296;28;20045;-59
2023/05/06 06:25:48;;;;;;;43.53;30.00;;;;;;;11.35;100.00;101528.47;5029617;28;20634;-59
2023/05/06 06:28:16;;;;;;;42.05;30.95;;;;;;;11.52;100.00;101527.50;5031604;28;20057;-59
2023/05/06 06:30:46;;;;;;;43.33;31.70;;;;;;;11.64;100.00;101528.56;5030438;28;20049;-59
2023/05/06 06:33:14;;;;;;;35.63;27.48;;;;;;;11.77;100.00;101537.44;5032504;28;20091;-59
2023/05/06 06:35:42;;;;;;;32.45;24.33;;;;;;;11.87;100.00;101532.47;5030573;28;20045;-59
2023/05/06 06:38:10;;;;;;;28.08;21.85;;;;;;;11.97;100.00;101540.69;5030724;28;20041;-59
2023/05/06 06:40:38;;;;;;;29.20;23.25;;;;;;;12.11;100.00;101537.25;5028765;28;20448;-53
2023/05/06 06:43:06;;;;;;;26.60;21.80;;;;;;;12.15;100.00;101542.25;5029339;28;20053;-60
2023/05/06 06:45:34;;;;;;;29.65;22.23;;;;;;;12.24;100.00;101535.53;5032453;28;20057;-59
2023/05/06 06:48:04;;;;;;;25.27;20.50;;;;;;;12.33;100.00;101539.41;5032634;28;20052;-59
2023/05/06 06:50:32;;;;;;;23.75;19.30;;;;;;;12.40;100.00;101543.38;5032867;28;20042;-59
2023/05/06 06:53:00;;;;;;;22.38;18.58;;;;;;;12.49;100.00;101547.25;5030883;28;20447;-58
2023/05/06 06:55:31;;;;;;;24.33;19.27;;;;;;;12.51;100.00;101545.34;5031047;28;20049;-59
2023/05/06 06:57:59;;;;;;;23.95;18.85;;;;;;;12.52;100.00;101536.50;5030557;28;20041;-59
2023/05/06 07:00:27;;;;;;;24.88;19.13;;;;;;;12.60;100.00;101550.06;5031491;28;20057;-59
2023/05/06 07:02:55;;;;;;;24.50;19.70;;;;;;;12.72;100.00;101544.94;5032615;28;20128;-60
2023/05/06 07:05:26;;;;;;;22.92;18.35;;;;;;;12.84;100.00;101545.03;5032479;28;20124;-59
2023/05/06 07:07:54;;;;;;;25.23;19.27;;;;;;;12.90;100.00;101537.63;5032051;28;20053;-60
2023/05/06 07:10:22;;;;;;;23.92;18.60;;;;;;;13.01;100.00;101549.22;5031892;28;20048;-60
2023/05/06 07:12:50;;;;;;;21.98;17.48;;;;;;;13.15;100.00;101542.19;5030070;28;20088;-60
2023/05/06 07:15:19;;;;;;;21.15;17.42;;;;;;;13.19;100.00;101543.69;5030618;28;20045;-60
2023/05/06 07:17:47;;;;;;;21.02;17.50;;;;;;;13.27;100.00;101551.97;5031324;28;20140;-60
2023/05/06 07:20:16;;;;;;;21.13;16.95;;;;;;;13.39;100.00;101550.34;5030489;28;20512;-60
2023/05/06 07:22:45;;;;;;;19.27;16.85;;;;;;;13.47;100.00;101549.81;5029907;28;20045;-60
2023/05/06 07:25:13;;;;;;;19.13;16.30;;;;;;;13.53;100.00;101549.44;5031462;28;20080;-60
2023/05/06 07:27:41;;;;;;;20.98;16.27;;;;;;;13.66;100.00;101547.66;5029053;28;20076;-60
2023/05/06 07:30:10;;;;;;;20.77;16.30;;;;;;;13.78;100.00;101543.31;5030351;28;20181;-60
2023/05/06 07:32:40;;;;;;;19.60;16.08;;;;;;;13.88;100.00;101546.22;5030346;28;20087;-60
2023/05/06 07:35:09;;;;;;;19.38;15.95;;;;;;;13.92;100.00;101546.84;5031856;28;20053;-60
2023/05/06 07:37:37;;;;;;;20.17;16.83;;;;;;;14.01;100.00;101549.69;5032062;28;20046;-60
2023/05/06 07:40:08;;;;;;;19.27;16.08;;;;;;;14.13;100.00;101547.19;5030981;28;20764;-60
2023/05/06 07:42:36;;;;;;;20.00;16.17;;;;;;;14.23;100.00;101547.38;5030998;28;20078;-60
2023/05/06 07:45:05;;;;;;;20.05;15.18;;;;;;;14.31;100.00;101553.81;5034007;28;20132;-60
2023/05/06 07:47:35;;;;;;;19.00;15.38;;;;;;;14.39;100.00;101558.59;5034366;28;20042;-60
2023/05/06 07:50:05;;;;;;;20.88;15.75;;;;;;;14.56;100.00;101552.13;5035632;28;20049;-61
2023/05/06 07:52:34;;;;;;;17.48;14.63;;;;;;;14.79;100.00;101554.94;5035084;28;20056;-54
2023/05/06 07:55:08;;;;;;;19.15;14.80;;;;;;;14.92;100.00;101553.09;5031777;28;20037;-55
2023/05/06 07:57:37;;;;;;;17.60;15.07;;;;;;;14.94;100.00;101558.28;5030790;28;20052;-53
2023/05/06 08:00:08;;;;;;;17.83;14.68;;;;;;;15.20;100.00;101561.69;5031044;28;20103;-53
2023/05/06 08:02:38;;;;;;;18.40;14.05;;;;;;;15.38;100.00;101568.28;5031365;28;20057;-53
2023/05/06 08:05:07;;;;;;;18.85;15.35;;;;;;;15.55;100.00;101567.00;5029233;28;20562;-53
2023/05/06 08:07:39;;;;;;;17.20;14.05;;;;;;;15.63;100.00;101574.41;5035294;28;20041;-54
2023/05/06 08:10:10;;;;;;;16.42;13.32;;;;;;;15.62;100.00;101577.16;5035140;28;20045;-55
2023/05/06 08:12:38;;;;;;;17.90;13.70;;;;;;;15.64;100.00;101573.44;5034940;28;20060;-54
2023/05/06 08:15:07;;;;;;;17.05;13.93;;;;;;;15.83;100.00;101577.41;5030332;28;20057;-53
2023/05/06 08:17:36;;;;;;;17.13;13.85;;;;;;;16.03;100.00;101581.16;5031036;28;20081;-55
2023/05/06 08:20:04;;;;;;;16.15;13.07;;;;;;;16.18;100.00;101576.47;5029829;28;20076;-54
2023/05/06 08:22:32;;;;;;;17.50;13.05;;;;;;;16.33;100.00;101580.63;5030929;28;20114;-55
2023/05/06 08:25:01;;;;;;;15.55;12.75;;;;;;;16.46;100.00;101584.97;5031105;28;20132;-55
2023/05/06 08:27:30;;;;;;;14.90;12.00;;;;;;;16.63;100.00;101581.81;5029938;28;20058;-55
2023/05/06 08:30:01;;;;;;;15.93;12.38;;;;;;;16.69;100.00;101573.38;5030517;28;20057;-57
2023/05/06 08:32:32;;;;;;;17.40;12.68;;;;;;;16.90;100.00;101577.94;5032128;28;20077;-53
2023/05/06 08:35:00;;;;;;;17.50;12.43;;;;;;;16.97;100.00;101579.13;5033060;28;20068;-53
2023/05/06 08:37:29;;;;;;;18.58;13.23;;;;;;;16.97;100.00;101575.66;5034168;28;20099;-53
2023/05/06 08:39:57;;;;;;;18.02;13.23;;;;;;;17.05;100.00;101582.00;5030537;28;20125;-54
2023/05/06 08:42:30;;;;;;;20.13;14.32;;;;;;;17.28;100.00;101583.78;5029357;28;20521;-53
2023/05/06 08:44:58;;;;;;;20.95;14.07;;;;;;;17.51;100.00;101579.22;5030049;28;20496;-54
2023/05/06 08:47:27;;;;;;;19.55;13.88;;;;;;;17.60;100.00;101574.94;5028962;28;20517;-54
2023/05/06 08:49:57;;;;;;;15.70;13.00;;;;;;;17.71;100.00;101575.75;5029299;28;20055;-53
2023/05/06 08:52:26;;;;;;;16.17;13.02;;;;;;;17.75;100.00;101573.66;5031882;28;20140;-53
2023/05/06 08:55:00;;;;;;;17.48;13.40;;;;;;;17.78;100.00;101570.75;5033746;28;20508;-55
2023/05/06 08:57:31;;;;;;;17.92;13.23;;;;;;;17.97;100.00;101570.06;5033008;28;20144;-53
2023/05/06 08:59:59;;;;;;;16.63;12.68;;;;;;;18.19;100.00;101571.72;5030348;28;20547;-54
2023/05/06 09:02:28;;;;;;;20.27;12.80;;;;;;;18.53;100.00;101573.28;5031594;28;20045;-53
2023/05/06 09:04:56;;;;;;;18.08;12.52;;;;;;;18.82;100.00;101572.53;5033919;28;20052;-55
2023/05/06 09:07:24;;;;;;;17.13;11.98;;;;;;;18.84;100.00;101568.75;5033187;28;20060;-54
2023/05/06 09:09:55;;;;;;;15.38;11.65;;;;;;;18.89;100.00;101569.19;5030302;28;20117;-55
2023/05/06 09:12:24;;;;;;;14.52;10.75;;;;;;;18.92;100.00;101565.41;5028483;28;20057;-55
2023/05/06 09:14:54;;;;;;;15.93;11.55;;;;;;;19.11;100.00;101563.78;5029684;28;20046;-54
2023/05/06 09:17:25;;;;;;;14.55;11.73;;;;;;;19.17;100.00;101563.22;5030363;28;20054;-54
2023/05/06 09:19:55;;;;;;;18.02;11.70;;;;;;;19.21;100.00;101564.63;5033864;28;20054;-55
2023/05/06 09:22:25;;;;;;;16.35;11.52;;;;;;;19.28;100.00;101567.56;5032451;28;20548;-54
2023/05/06 09:24:56;;;;;;;15.70;10.98;;;;;;;19.47;100.00;101564.06;5028292;28;20049;-54
2023/05/06 09:27:26;;;;;;;15.38;10.70;;;;;;;19.82;100.00;101555.50;5032206;28;20716;-54
2023/05/06 09:30:03;;;;;;;14.68;9.77;;;;;;;20.17;100.00;101553.16;5033411;28;20053;-55
2023/05/06 09:32:32;;;;;;;13.57;10.05;;;;;;;20.51;100.00;101552.59;5031122;28;20370;-56
2023/05/06 09:35:03;;;;;;;16.40;9.70;;;;;;;20.26;100.00;101552.31;5028927;28;20508;-55
2023/05/06 09:37:31;;;;;;;15.05;10.15;;;;;;;20.57;100.00;101547.50;5029930;28;20053;-55
2023/05/06 09:40:00;;;;;;;13.55;9.40;;;;;;;20.84;100.00;101545.81;5029739;28;20451;-56
2023/05/06 09:42:29;;;;;;;13.93;9.38;;;;;;;21.24;100.00;101541.91;5027956;28;20045;-56
2023/05/06 09:45:00;;;;;;;12.60;8.60;;;;;;;21.26;100.00;101539.06;5027701;28;20058;-56
2023/05/06 09:47:34;;;;;;;12.88;9.23;;;;;;;21.55;100.00;101532.63;5031296;28;20053;-56
2023/05/06 09:50:03;;;;;;;13.65;9.05;;;;;;;21.70;100.00;101536.41;5030037;28;20160;-56
2023/05/06 09:52:35;;;;;;;14.80;9.43;;;;;;;21.87;100.00;101534.72;5029603;28;20389;-55
2023/05/06 09:55:04;;;;;;;12.27;8.82;;;;;;;21.82;100.00;101536.19;5029396;28;20049;-56
2023/05/06 09:57:32;;;;;;;11.95;8.57;;;;;;;21.76;100.00;101533.13;5029186;28;20057;-56
2023/05/06 10:00:05;;;;;;;11.13;7.15;;;;;;;21.83;100.00;101529.81;5030428;28;20408;-56
2023/05/06 10:02:36;;;;;;;9.75;6.45;;;;;;;21.73;100.00;101529.91;5030689;28;20053;-56
2023/05/06 10:05:05;;;;;;;9.15;5.82;;;;;;;21.88;100.00;101523.00;5028153;28;20053;-56
2023/05/06 10:07:35;;;;;;;10.18;6.32;;;;;;;21.95;100.00;101524.03;5029165;28;20544;-56
2023/05/06 10:10:05;;;;;;;9.52;5.43;;;;;;;21.85;100.00;101531.34;5029357;28;20520;-56
2023/05/06 10:12:33;;;;;;;12.05;6.03;;;;;;;22.12;100.00;101532.16;5030645;28;20049;-56
2023/05/06 10:15:03;;;;;;;9.77;6.30;;;;;;;22.31;100.00;101531.09;5032810;28;20057;-56
2023/05/06 10:17:39;;;;;;;9.63;5.90;;;;;;;22.59;100.00;101533.56;5029938;28;20529;-56
2023/05/06 10:20:13;;;;;;;14.23;5.88;;;;;;;22.66;100.00;101523.88;5028666;28;20060;-56
2023/05/06 10:22:49;;;;;;;11.10;7.03;;;;;;;22.68;100.00;101518.34;5029706;28;20049;-56
2023/05/06 10:25:27;;;;;;;8.82;5.07;;;;;;;22.53;100.00;101526.19;5027813;28;20175;-56
2023/05/06 10:27:55;;;;;;;11.10;6.45;;;;;;;22.25;100.00;101524.53;5030720;28;20049;-62
2023/05/06 10:30:26;;;;;;;8.80;5.13;;;;;;;22.54;100.00;101519.81;5032283;28;20559;-62
2023/05/06 10:32:57;;;;;;;8.18;5.40;;;;;;;22.65;100.00;101514.16;5030535;28;20124;-63
2023/05/06 10:35:42;;;;;;;10.15;5.32;;;;;;;22.81;100.00;101517.88;5030780;28;20049;-62
2023/05/06 10:38:15;;;;;;;9.23;5.50;;;;;;;22.90;97.75;101515.03;5030536;28;20061;-62
2023/05/06 10:40:43;;;;;;;8.48;4.88;;;;;;;23.16;100.00;101510.59;5028767;28;20053;-62
2023/05/06 10:43:24;;;;;;;8.85;4.82;;;;;;;22.97;100.00;101507.16;5029842;28;20049;-63
2023/05/06 10:46:00;;;;;;;7.68;4.22;;;;;;;23.08;94.50;101506.88;5031299;28;20049;-63
2023/05/06 10:48:30;;;;;;;9.30;5.03;;;;;;;23.01;94.40;101500.47;5028670;28;20061;-63
2023/05/06 10:51:24;;;;;;;10.20;5.00;;;;;;;23.15;96.62;101495.47;5030494;28;20068;-63
2023/05/06 10:54:01;;;;;;;8.48;4.82;;;;;;;23.61;95.87;101506.53;5030775;28;20417;-63
2023/05/06 10:56:31;;;;;;;8.60;4.95;;;;;;;23.57;90.99;101505.19;5028153;28;20378;-63
2023/05/06 10:59:03;;;;;;;8.27;4.95;;;;;;;23.59;90.34;101490.59;5031124;28;20060;-63
2023/05/06 11:01:31;;;;;;;8.25;5.10;;;;;;;23.67;85.01;101486.22;5028501;28;20050;-63
2023/05/06 11:04:04;;;;;;;7.78;4.07;;;;;;;23.72;87.72;101491.91;5027523;28;20049;-62
2023/05/06 11:06:37;;;;;;;7.63;3.97;;;;;;;23.87;85.67;101492.88;5028196;28;20057;-63
2023/05/06 11:09:06;;;;;;;7.82;4.30;;;;;;;23.88;85.00;101489.22;5027885;28;20447;-63
2023/05/06 11:11:50;;;;;;;8.88;4.85;;;;;;;23.51;80.98;101482.56;5028333;28;20049;-63
2023/05/06 11:14:29;;;;;;;8.85;4.43;;;;;;;23.63;83.73;101491.09;5031221;28;20111;-63
2023/05/06 11:16:58;;;;;;;8.52;4.28;;;;;;;24.07;81.19;101479.09;5028808;28;20057;-64
2023/05/06 11:19:31;;;;;;;7.93;4.32;;;;;;;24.35;80.15;101484.00;5031139;28;20053;-64